Time;durP1;ratioP1;P1;durP2;ratioP2;P2;SDS_P1;SDS_P2;PMS_P1;PMS_P2;Temp;Humidity;BMP_temperature;BMP_pressure;BME280_temperature;BME280_humidity;BME280_pressure;Samples;Min_cycle;Max_cycle;Signal;HPM_P1;HPM_P2
2021/12/04 00:01:33;;;;;;;;;;;;;;;;;;4550860;28;19912;-73
2021/12/04 00:03:43;;;;;;;;;;;;;;;;;;4549986;28;20383;-73
2021/12/04 00:05:56;;;;;;;;;;;;;;;;;;4548390;28;20363;-73
2021/12/04 00:08:06;;;;;;;;;;;;;;;;;;4532137;28;19916;-73
2021/12/04 00:10:19;;;;;;;;;;;;;;;;;;4546245;28;26003;-73
2021/12/04 00:12:33;;;;;;;;;;;;;;;;;;4548274;28;20754;-73
2021/12/04 00:14:45;;;;;;;;;;;;;;;;;;4548692;28;19920;-72
2021/12/04 00:16:55;;;;;;;;;;;;;;;;;;4548674;28;19920;-73
2021/12/04 00:19:06;;;;;;;;;;;;;;;;;;4546718;28;19916;-73
2021/12/04 00:21:16;;;;;;;;;;;;;;;;;;4547270;28;19921;-73
2021/12/04 00:23:26;;;;;;;;;;;;;;;;;;4548888;28;19912;-73
2021/12/04 00:25:38;;;;;;;;;;;;;;;;;;4548622;28;19929;-73
2021/12/04 00:27:48;;;;;;;;;;;;;;;;;;4548526;28;20062;-72
2021/12/04 00:29:58;;;;;;;;;;;;;;;;;;4548728;28;19916;-72
2021/12/04 00:32:15;;;;;;;;;;;;;;;;;;4548951;28;19917;-73
2021/12/04 00:34:27;;;;;;;;;;;;;;;;;;4547596;28;20887;-73
2021/12/04 00:51:15;;;;;;;;;;;;;;;;;;4550600;28;19912;-73
2021/12/04 00:53:26;;;;;;;;;;;;;;;;;;4546525;28;19925;-73
2021/12/04 00:55:36;;;;;;;;;;;;;;;;;;4547519;28;20396;-72
2021/12/04 00:57:46;;;;;;;;;;;;;;;;;;4548373;28;20882;-72
2021/12/04 00:59:56;;;;;;;;;;;;;;;;;;4547748;28;26093;-73
2021/12/04 01:02:07;;;;;;;;;;;;;;;;;;4548518;28;19912;-74
2021/12/04 01:04:18;;;;;;;;;;;;;;;;;;4548095;28;20439;-73
2021/12/04 01:06:28;;;;;;;;;;;;;;;;;;4548803;28;20777;-72
2021/12/04 01:08:39;;;;;;;;;;;;;;;;;;4547730;28;19919;-72
2021/12/04 01:10:49;;;;;;;;;;;;;;;;;;4549193;28;19920;-72
2021/12/04 01:13:01;;;;;;;;;;;;;;;;;;4548818;28;20783;-73
2021/12/04 01:15:12;;;;;;;;;;;;;;;;;;4548987;28;20467;-73
2021/12/04 01:17:22;;;;;;;;;;;;;;;;;;4549527;28;19920;-72
2021/12/04 01:19:32;;;;;;;;;;;;;;;;;;4547916;28;19967;-71
2021/12/04 01:21:43;;;;;;;;;;;;;;;;;;4546690;28;19974;-72
2021/12/04 01:23:54;;;;;;;;;;;;;;;;;;4548142;28;25876;-72
2021/12/04 01:26:05;;;;;;;;;;;;;;;;;;4556320;28;19916;-72
2021/12/04 01:28:15;;;;;;;;;;;;;;;;;;4549079;28;19958;-72
2021/12/04 01:30:25;;;;;;;;;;;;;;;;;;4546198;28;19918;-71
2021/12/04 01:32:36;;;;;;;;;;;;;;;;;;4546996;28;19916;-72
2021/12/04 01:34:46;;;;;;;;;;;;;;;;;;4545681;28;19931;-72
2021/12/04 01:36:56;;;;;;;;;;;;;;;;;;4548527;28;19916;-72
2021/12/04 01:39:07;;;;;;;;;;;;;;;;;;4546944;28;31290;-72
2021/12/04 01:41:17;;;;;;;;;;;;;;;;;;4546878;28;19960;-72
2021/12/04 01:43:28;;;;;;;;;;;;;;;;;;4548347;28;19940;-72
2021/12/04 01:45:38;;;;;;;;;;;;;;;;;;4547638;28;19963;-72
2021/12/04 01:47:48;;;;;;;;;;;;;;;;;;4546823;28;19923;-72
2021/12/04 01:50:00;;;;;;;;;;;;;;;;;;4546781;28;19923;-73
2021/12/04 01:52:10;;;;;;;;;;;;;;;;;;4547301;28;19923;-72
2021/12/04 01:54:21;;;;;;;;;;;;;;;;;;4545003;28;19962;-72
2021/12/04 01:56:33;;;;;;;;;;;;;;;;;;4549359;28;19917;-72
2021/12/04 01:58:43;;;;;;;;;;;;;;;;;;4547040;28;19920;-72
2021/12/04 02:00:53;;;;;;;;;;;;;;;;;;4547479;28;19917;-73
2021/12/04 02:03:04;;;;;;;;;;;;;;;;;;4547566;28;19966;-72
2021/12/04 02:05:14;;;;;;;;;;;;;;;;;;4547187;28;19916;-73
2021/12/04 02:07:24;;;;;;;;;;;;;;;;;;4548693;28;20357;-72
2021/12/04 02:09:35;;;;;;;;;;;;;;;;;;4546065;28;19920;-72
2021/12/04 02:11:45;;;;;;;;;;;;;;;;;;4548388;28;19981;-71
2021/12/04 02:13:56;;;;;;;;;;;;;;;;;;4529289;28;20664;-73
2021/12/04 02:16:19;;;;;;;;;;;;;;;;;;4547894;28;19920;-73
2021/12/04 02:18:29;;;;;;;;;;;;;;;;;;4545168;28;20412;-72
2021/12/04 02:20:40;;;;;;;;;;;;;;;;;;4545787;28;19983;-73
2021/12/04 02:22:50;;;;;;;;;;;;;;;;;;4548805;28;20005;-73
2021/12/04 02:25:00;;;;;;;;;;;;;;;;;;4546935;28;19923;-73
2021/12/04 02:27:13;;;;;;;;;;;;;;;;;;4547786;28;20736;-73
2021/12/04 02:29:23;;;;;;;;;;;;;;;;;;4548463;28;19920;-71
2021/12/04 02:31:33;;;;;;;;;;;;;;;;;;4547687;28;20087;-73
2021/12/04 02:33:44;;;;;;;;;;;;;;;;;;4547444;28;20011;-72
2021/12/04 02:35:55;;;;;;;;;;;;;;;;;;4551579;28;19946;-73
2021/12/04 02:38:05;;;;;;;;;;;;;;;;;;4551684;28;19916;-72
2021/12/04 02:40:17;;;;;;;;;;;;;;;;;;4550661;28;19920;-71
2021/12/04 02:42:29;;;;;;;;;;;;;;;;;;4548143;28;19916;-72
2021/12/04 02:44:40;;;;;;;;;;;;;;;;;;4549871;28;19943;-71
2021/12/04 02:46:50;;;;;;;;;;;;;;;;;;4548267;28;20000;-72
2021/12/04 02:49:04;;;;;;;;;;;;;;;;;;4550222;28;19920;-72
2021/12/04 02:51:19;;;;;;;;;;;;;;;;;;4549391;28;19916;-72
2021/12/04 02:53:29;;;;;;;;;;;;;;;;;;4550671;28;19920;-72
2021/12/04 02:55:39;;;;;;;;;;;;;;;;;;4546737;28;20111;-73
2021/12/04 02:57:50;;;;;;;;;;;;;;;;;;4550035;28;19927;-72
2021/12/04 03:00:00;;;;;;;;;;;;;;;;;;4548051;28;19920;-73
2021/12/04 03:02:19;;;;;;;;;;;;;;;;;;4550254;28;19928;-72
2021/12/04 03:04:31;;;;;;;;;;;;;;;;;;4550255;28;19916;-71
2021/12/04 03:06:43;;;;;;;;;;;;;;;;;;4550873;28;19916;-72
2021/12/04 03:08:53;;;;;;;;;;;;;;;;;;4548517;28;19943;-72
2021/12/04 03:11:03;;;;;;;;;;;;;;;;;;4550237;28;19926;-72
2021/12/04 03:13:17;;;;;;;;;;;;;;;;;;4549417;28;19920;-72
2021/12/04 03:15:27;;;;;;;;;;;;;;;;;;4549227;28;19920;-71
2021/12/04 03:17:38;;;;;;;;;;;;;;;;;;4548370;28;19917;-72
2021/12/04 03:19:52;;;;;;;;;;;;;;;;;;4548594;28;19912;-71
2021/12/04 03:22:03;;;;;;;;;;;;;;;;;;4549565;28;19921;-72
2021/12/04 03:24:15;;;;;;;;;;;;;;;;;;4548604;28;20385;-72
2021/12/04 03:26:25;;;;;;;;;;;;;;;;;;4551989;28;19964;-71
2021/12/04 03:28:36;;;;;;;;;;;;;;;;;;4550252;28;20011;-71
2021/12/04 03:30:52;;;;;;;;;;;;;;;;;;4549463;28;26105;-72
2021/12/04 03:40:51;;;;;;;;;;;;;;;;;;4548693;28;19967;-71
2021/12/04 03:43:02;;;;;;;;;;;;;;;;;;4549069;28;20886;-72
2021/12/04 03:45:13;;;;;;;;;;;;;;;;;;4547531;28;20377;-71
2021/12/04 03:47:23;;;;;;;;;;;;;;;;;;4550511;28;19921;-71
2021/12/04 03:49:33;;;;;;;;;;;;;;;;;;4547794;28;19920;-71
2021/12/04 03:51:44;;;;;;;;;;;;;;;;;;4550540;28;19920;-71
2021/12/04 03:53:55;;;;;;;;;;;;;;;;;;4548214;28;19978;-73
2021/12/04 03:56:06;;;;;;;;;;;;;;;;;;4548171;28;19920;-71
2021/12/04 03:58:17;;;;;;;;;;;;;;;;;;4546869;28;19920;-71
2021/12/04 04:00:28;;;;;;;;;;;;;;;;;;4547762;28;19917;-71
2021/12/04 04:02:39;;;;;;;;;;;;;;;;;;4550822;28;20734;-71
2021/12/04 04:04:49;;;;;;;;;;;;;;;;;;4547041;28;19928;-71
2021/12/04 04:07:00;;;;;;;;;;;;;;;;;;4549422;28;19917;-71
2021/12/04 04:09:10;;;;;;;;;;;;;;;;;;4549532;28;19912;-72
2021/12/04 04:11:20;;;;;;;;;;;;;;;;;;4548243;28;19920;-71
2021/12/04 04:13:31;;;;;;;;;;;;;;;;;;4547616;28;19968;-71
2021/12/04 04:15:41;;;;;;;;;;;;;;;;;;4549344;28;20015;-72
2021/12/04 04:17:52;;;;;;;;;;;;;;;;;;4547716;28;19979;-71
2021/12/04 04:20:03;;;;;;;;;;;;;;;;;;4548281;28;20012;-71
2021/12/04 04:22:13;;;;;;;;;;;;;;;;;;4549409;28;19924;-73
2021/12/04 04:24:24;;;;;;;;;;;;;;;;;;4550102;28;19916;-71
2021/12/04 04:26:35;;;;;;;;;;;;;;;;;;4547223;28;19917;-72
2021/12/04 04:28:46;;;;;;;;;;;;;;;;;;4548244;28;20305;-71
2021/12/04 04:30:56;;;;;;;;;;;;;;;;;;4549747;28;19924;-71
2021/12/04 04:33:07;;;;;;;;;;;;;;;;;;4550454;28;19967;-72
2021/12/04 04:35:24;;;;;;;;;;;;;;;;;;4547187;28;20534;-72
2021/12/04 04:38:41;;;;;;;;;;;;;;;;;;4549223;28;19916;-72
2021/12/04 04:57:58;;;;;;;;;;;;;;;;;;4547234;28;20479;-71
2021/12/04 05:00:19;;;;;;;;;;;;;;;;;;4548202;28;19917;-71
2021/12/04 05:12:30;;;;;;;;;;;;;;;;;;4548228;28;19916;-72
2021/12/04 05:14:43;;;;;;;;;;;;;;;;;;4548996;28;19921;-71
2021/12/04 05:17:02;;;;;;;;;;;;;;;;;;4548901;28;19966;-71
2021/12/04 05:19:25;;;;;;;;;;;;;;;;;;4549892;28;19923;-71
2021/12/04 05:21:36;;;;;;;;;;;;;;;;;;4549146;28;19920;-73
2021/12/04 05:23:48;;;;;;;;;;;;;;;;;;4547596;28;22729;-72
2021/12/04 05:25:58;;;;;;;;;;;;;;;;;;4547784;28;20022;-72
2021/12/04 05:28:08;;;;;;;;;;;;;;;;;;4547834;28;20405;-71
2021/12/04 05:30:19;;;;;;;;;;;;;;;;;;4547536;28;19916;-71
2021/12/04 05:32:29;;;;;;;;;;;;;;;;;;4548312;28;19947;-71
2021/12/04 05:34:39;;;;;;;;;;;;;;;;;;4547452;28;19975;-72
2021/12/04 05:36:50;;;;;;;;;;;;;;;;;;4546844;28;20368;-71
2021/12/04 05:39:00;;;;;;;;;;;;;;;;;;4549021;28;19921;-72
2021/12/04 05:41:10;;;;;;;;;;;;;;;;;;4547634;28;20701;-71
2021/12/04 05:43:24;;;;;;;;;;;;;;;;;;4548905;28;19916;-71
2021/12/04 05:45:39;;;;;;;;;;;;;;;;;;4548682;28;20033;-71
2021/12/04 05:48:03;;;;;;;;;;;;;;;;;;4547629;28;19924;-71
2021/12/04 05:55:16;;;;;;;;;;;;;;;;;;4547027;28;19916;-71
2021/12/04 05:57:26;;;;;;;;;;;;;;;;;;4546192;28;19921;-71
2021/12/04 05:59:36;;;;;;;;;;;;;;;;;;4547613;28;37286;-71
2021/12/04 06:01:47;;;;;;;;;;;;;;;;;;4549337;28;19916;-71
2021/12/04 06:03:57;;;;;;;;;;;;;;;;;;4548877;28;19920;-71
2021/12/04 06:06:08;;;;;;;;;;;;;;;;;;4548741;28;19923;-72
2021/12/04 06:08:19;;;;;;;;;;;;;;;;;;4545917;28;19916;-71
2021/12/04 06:10:30;;;;;;;;;;;;;;;;;;4550815;28;19920;-71
2021/12/04 06:12:40;;;;;;;;;;;;;;;;;;4551025;28;19923;-71
2021/12/04 06:14:50;;;;;;;;;;;;;;;;;;4551519;28;19970;-71
2021/12/04 06:17:01;;;;;;;;;;;;;;;;;;4551302;28;19927;-71
2021/12/04 06:19:14;;;;;;;;;;;;;;;;;;4552687;28;19967;-71
2021/12/04 06:23:53;;;;;;;;;;;;;;;;;;4551900;28;20467;-71
2021/12/04 06:26:06;;;;;;;;;;;;;;;;;;4549600;28;19912;-70
2021/12/04 06:28:16;;;;;;;;;;;;;;;;;;4550875;28;19991;-70
2021/12/04 06:30:26;;;;;;;;;;;;;;;;;;4550570;28;19916;-70
2021/12/04 06:32:37;;;;;;;;;;;;;;;;;;4552701;28;19966;-70
2021/12/04 06:34:48;;;;;;;;;;;;;;;;;;4551455;28;20340;-71
2021/12/04 06:36:58;;;;;;;;;;;;;;;;;;4549213;28;19917;-71
2021/12/04 06:39:09;;;;;;;;;;;;;;;;;;4549695;28;30105;-71
2021/12/04 06:41:20;;;;;;;;;;;;;;;;;;4550416;28;21132;-71
2021/12/04 06:43:31;;;;;;;;;;;;;;;;;;4550932;28;19999;-71
2021/12/04 06:45:43;;;;;;;;;;;;;;;;;;4533626;28;19954;-71
2021/12/04 06:47:57;;;;;;;;;;;;;;;;;;4550163;28;20547;-71
2021/12/04 06:50:17;;;;;;;;;;;;;;;;;;4550370;28;19920;-71
2021/12/04 06:52:28;;;;;;;;;;;;;;;;;;4550994;28;20472;-71
2021/12/04 06:54:42;;;;;;;;;;;;;;;;;;4553375;28;19920;-71
2021/12/04 06:56:52;;;;;;;;;;;;;;;;;;4550720;28;20495;-71
2021/12/04 06:59:07;;;;;;;;;;;;;;;;;;4550356;28;19947;-71
2021/12/04 07:01:17;;;;;;;;;;;;;;;;;;4548881;28;19968;-72
2021/12/04 07:03:27;;;;;;;;;;;;;;;;;;4548895;28;20011;-70
2021/12/04 07:05:38;;;;;;;;;;;;;;;;;;4550188;28;19965;-71
2021/12/04 07:07:48;;;;;;;;;;;;;;;;;;4551685;28;19916;-71
2021/12/04 07:09:58;;;;;;;;;;;;;;;;;;4549645;28;19920;-71
2021/12/04 07:12:09;;;;;;;;;;;;;;;;;;4551408;28;19921;-71
2021/12/04 07:14:19;;;;;;;;;;;;;;;;;;4550093;28;20384;-70
2021/12/04 07:16:29;;;;;;;;;;;;;;;;;;4549973;28;20799;-70
2021/12/04 07:18:40;;;;;;;;;;;;;;;;;;4548760;28;19931;-71
2021/12/04 07:20:50;;;;;;;;;;;;;;;;;;4548997;28;19920;-71
2021/12/04 07:23:00;;;;;;;;;;;;;;;;;;4554123;28;19920;-71
2021/12/04 07:25:11;;;;;;;;;;;;;;;;;;4550250;28;19928;-70
2021/12/04 07:27:21;;;;;;;;;;;;;;;;;;4550831;28;20380;-70
2021/12/04 07:29:31;;;;;;;;;;;;;;;;;;4549886;28;19916;-71
2021/12/04 07:31:41;;;;;;;;;;;;;;;;;;4550301;28;19916;-70
2021/12/04 07:33:52;;;;;;;;;;;;;;;;;;4548437;28;20303;-70
2021/12/04 07:36:02;;;;;;;;;;;;;;;;;;4551026;28;19990;-71
2021/12/04 07:38:14;;;;;;;;;;;;;;;;;;4546991;28;19917;-71
2021/12/04 07:40:24;;;;;;;;;;;;;;;;;;4549276;28;20945;-71
2021/12/04 07:42:34;;;;;;;;;;;;;;;;;;4548887;28;27524;-71
2021/12/04 07:44:45;;;;;;;;;;;;;;;;;;4549327;28;20372;-72
2021/12/04 07:46:55;;;;;;;;;;;;;;;;;;4550908;28;19924;-72
2021/12/04 07:49:05;;;;;;;;;;;;;;;;;;4550705;28;19912;-70
2021/12/04 07:51:17;;;;;;;;;;;;;;;;;;4550892;28;19943;-71
2021/12/04 07:53:28;;;;;;;;;;;;;;;;;;4548411;28;19971;-71
2021/12/04 07:55:39;;;;;;;;;;;;;;;;;;4533175;28;19913;-70
2021/12/04 07:57:49;;;;;;;;;;;;;;;;;;4547838;28;19995;-71
2021/12/04 08:00:00;;;;;;;;;;;;;;;;;;4547681;28;20369;-71
2021/12/04 08:02:12;;;;;;;;;;;;;;;;;;4548961;28;19924;-71
2021/12/04 08:04:23;;;;;;;;;;;;;;;;;;4549163;28;19920;-70
2021/12/04 08:06:34;;;;;;;;;;;;;;;;;;4551291;28;19923;-71
2021/12/04 08:08:44;;;;;;;;;;;;;;;;;;4547029;28;19924;-71
2021/12/04 08:10:55;;;;;;;;;;;;;;;;;;4548828;28;20289;-71
2021/12/04 08:13:05;;;;;;;;;;;;;;;;;;4548027;28;19923;-71
2021/12/04 08:15:17;;;;;;;;;;;;;;;;;;4548530;28;19924;-71
2021/12/04 08:17:28;;;;;;;;;;;;;;;;;;4549211;28;21075;-71
2021/12/04 08:19:38;;;;;;;;;;;;;;;;;;4548670;28;19925;-71
2021/12/04 08:21:49;;;;;;;;;;;;;;;;;;4548479;28;19924;-71
2021/12/04 08:23:59;;;;;;;;;;;;;;;;;;4547664;28;19967;-71
2021/12/04 08:26:09;;;;;;;;;;;;;;;;;;4549419;28;19920;-71
2021/12/04 08:28:20;;;;;;;;;;;;;;;;;;4549421;28;19958;-71
2021/12/04 08:30:33;;;;;;;;;;;;;;;;;;4547579;28;19917;-71
2021/12/04 08:32:44;;;;;;;;;;;;;;;;;;4548422;28;19927;-71
2021/12/04 08:34:54;;;;;;;;;;;;;;;;;;4548907;28;19924;-71
2021/12/04 08:37:04;;;;;;;;;;;;;;;;;;4548456;28;20413;-70
2021/12/04 08:39:15;;;;;;;;;;;;;;;;;;4549407;28;19943;-72
2021/12/04 08:41:25;;;;;;;;;;;;;;;;;;4550186;28;19916;-70
2021/12/04 08:43:35;;;;;;;;;;;;;;;;;;4534182;28;19917;-70
2021/12/04 08:45:46;;;;;;;;;;;;;;;;;;4547801;28;20436;-71
2021/12/04 08:47:56;;;;;;;;;;;;;;;;;;4548731;28;19924;-71
2021/12/04 08:50:09;;;;;;;;;;;;;;;;;;4548927;28;20372;-71
2021/12/04 08:52:19;;;;;;;;;;;;;;;;;;4548233;28;20010;-71
2021/12/04 08:54:30;;;;;;;;;;;;;;;;;;4549821;28;19921;-70
2021/12/04 08:56:40;;;;;;;;;;;;;;;;;;4547655;28;19920;-70
2021/12/04 08:58:51;;;;;;;;;;;;;;;;;;4548974;28;20054;-70
2021/12/04 09:01:02;;;;;;;;;;;;;;;;;;4547853;28;19916;-71
2021/12/04 09:03:12;;;;;;;;;;;;;;;;;;4549500;28;19920;-70
2021/12/04 09:05:23;;;;;;;;;;;;;;;;;;4547205;28;20721;-71
2021/12/04 09:07:33;;;;;;;;;;;;;;;;;;4547091;28;19920;-71
2021/12/04 09:09:44;;;;;;;;;;;;;;;;;;4549171;28;19967;-71
2021/12/04 09:11:56;;;;;;;;;;;;;;;;;;4546522;28;19920;-70
2021/12/04 09:14:06;;;;;;;;;;;;;;;;;;4547122;28;19974;-71
2021/12/04 09:16:16;;;;;;;;;;;;;;;;;;4547689;28;19966;-72
2021/12/04 09:18:27;;;;;;;;;;;;;;;;;;4548160;28;19920;-71
2021/12/04 09:20:37;;;;;;;;;;;;;;;;;;4549649;28;19920;-71
2021/12/04 09:22:48;;;;;;;;;;;;;;;;;;4548979;28;19916;-72
2021/12/04 09:25:00;;;;;;;;;;;;;;;;;;4546946;28;19916;-71
2021/12/04 10:04:34;;;;;;;;;;;;;;;;;;4550089;28;19916;-70
2021/12/04 10:19:29;;;;;;;;;;;;;;;;;;4549029;28;19923;-71
2021/12/04 10:21:58;;;;;;;;;;;;;;;;;;4547445;28;19916;-71
2021/12/04 10:24:30;;;;;;;;;;;;;;;;;;4549065;28;19916;-71
2021/12/04 10:33:59;;;;;;;;;;;;;;;;;;4551903;28;19924;-72
2021/12/04 10:36:10;;;;;;;;;;;;;;;;;;4550389;28;20341;-71
2021/12/04 10:38:22;;;;;;;;;;;;;;;;;;4551551;28;19999;-71
2021/12/04 10:40:39;;;;;;;;;;;;;;;;;;4549255;28;20513;-70
2021/12/04 10:42:56;;;;;;;;;;;;;;;;;;4548337;28;20141;-71
2021/12/04 10:45:06;;;;;;;;;;;;;;;;;;4549775;28;20659;-70
2021/12/04 10:47:22;;;;;;;;;;;;;;;;;;4548933;28;19922;-71
2021/12/04 10:50:08;;;;;;;;;;;;;;;;;;4552700;28;19958;-70
2021/12/04 10:52:16;;;;;;;;;;;;;;;;;;4550440;28;19928;-70
2021/12/04 10:54:31;;;;;;;;;;;;;;;;;;4549825;28;19920;-71
2021/12/04 10:57:17;;;;;;;;;;;;;;;;;;4549768;28;19916;-71
2021/12/04 10:59:43;;;;;;;;;;;;;;;;;;4550272;28;20071;-71
2021/12/04 11:02:03;;;;;;;;;;;;;;;;;;4552566;28;19938;-70
2021/12/04 11:04:27;;;;;;;;;;;;;;;;;;4550413;28;19928;-71
2021/12/04 11:19:01;;;;;;;;;;;;;;;;;;4548616;28;19920;-72
2021/12/04 11:28:33;;;;;;;;;;;;;;;;;;4549880;28;19916;-71
2021/12/04 11:42:45;;;;;;;;;;;;;;;;;;4548090;28;20848;-72
2021/12/04 11:45:09;;;;;;;;;;;;;;;;;;4547284;28;19920;-71
2021/12/04 11:47:19;;;;;;;;;;;;;;;;;;4548636;28;20475;-71
2021/12/04 11:49:31;;;;;;;;;;;;;;;;;;4547385;28;19921;-72
2021/12/04 11:51:55;;;;;;;;;;;;;;;;;;4549052;28;19916;-71
2021/12/04 11:54:09;;;;;;;;;;;;;;;;;;4548975;28;20384;-71
2021/12/04 11:56:22;;;;;;;;;;;;;;;;;;4550295;28;19925;-71
2021/12/04 11:58:33;;;;;;;;;;;;;;;;;;4547581;28;19924;-71
2021/12/04 12:00:44;;;;;;;;;;;;;;;;;;4548522;28;19919;-71
2021/12/04 12:03:05;;;;;;;;;;;;;;;;;;4548163;28;19943;-71
2021/12/04 12:05:17;;;;;;;;;;;;;;;;;;4548129;28;20468;-71
2021/12/04 12:07:27;;;;;;;;;;;;;;;;;;4546494;28;19916;-72
2021/12/04 12:09:39;;;;;;;;;;;;;;;;;;4548248;28;20405;-65
2021/12/04 12:11:51;;;;;;;;;;;;;;;;;;4546094;28;19920;-70
2021/12/04 12:14:12;;;;;;;;;;;;;;;;;;4546905;28;19990;-71
2021/12/04 12:16:25;;;;;;;;;;;;;;;;;;4547868;28;20538;-71
2021/12/04 12:18:51;;;;;;;;;;;;;;;;;;4548886;28;19923;-71
2021/12/04 12:21:08;;;;;;;;;;;;;;;;;;4546948;28;20082;-72
2021/12/04 12:23:23;;;;;;;;;;;;;;;;;;4547185;28;20082;-72
2021/12/04 12:37:54;;;;;;;;;;;;;;;;;;4547529;28;20023;-72
2021/12/04 12:40:06;;;;;;;;;;;;;;;;;;4547938;28;20352;-72
2021/12/04 12:42:27;;;;;;;;;;;;;;;;;;4548115;28;19916;-72
2021/12/04 12:44:37;;;;;;;;;;;;;;;;;;4556754;28;19991;-71
2021/12/04 12:46:51;;;;;;;;;;;;;;;;;;4533764;28;20015;-72
2021/12/04 12:49:02;;;;;;;;;;;;;;;;;;4546495;28;19920;-71
2021/12/04 12:51:12;;;;;;;;;;;;;;;;;;4545251;28;19916;-71
2021/12/04 12:53:27;;;;;;;;;;;;;;;;;;4546715;28;19928;-71
2021/12/04 12:55:37;;;;;;;;;;;;;;;;;;4548758;28;19956;-71
2021/12/04 12:57:48;;;;;;;;;;;;;;;;;;4549445;28;20046;-72
2021/12/04 13:12:56;;;;;;;;;;;;;;;;;;4534131;28;19920;-70
2021/12/04 13:15:06;;;;;;;;;;;;;;;;;;4548681;28;19921;-69
2021/12/04 13:17:18;;;;;;;;;;;;;;;;;;4550085;28;19978;-69
2021/12/04 13:19:30;;;;;;;;;;;;;;;;;;4545295;28;20490;-69
2021/12/04 13:21:44;;;;;;;;;;;;;;;;;;4546065;28;19922;-69
2021/12/04 13:23:56;;;;;;;;;;;;;;;;;;4546109;28;20693;-71
2021/12/04 13:26:10;;;;;;;;;;;;;;;;;;4548411;28;19924;-71
2021/12/04 13:30:33;;;;;;;;;;;;;;;;;;4547617;28;30450;-71
2021/12/04 13:32:43;;;;;;;;;;;;;;;;;;4533040;28;19923;-71
2021/12/04 13:34:54;;;;;;;;;;;;;;;;;;4547866;28;19920;-71
2021/12/04 13:37:04;;;;;;;;;;;;;;;;;;4531995;28;20035;-71
2021/12/04 13:39:16;;;;;;;;;;;;;;;;;;4547692;28;20154;-71
2021/12/04 13:41:27;;;;;;;;;;;;;;;;;;4531559;28;19924;-72
2021/12/04 13:43:38;;;;;;;;;;;;;;;;;;4547995;28;19912;-70
2021/12/04 13:45:56;;;;;;;;;;;;;;;;;;4547646;28;20459;-70
2021/12/04 13:48:07;;;;;;;;;;;;;;;;;;4548133;28;20703;-71
2021/12/04 13:52:40;;;;;;;;;;;;;;;;;;4546973;28;20012;-71
2021/12/04 13:54:52;;;;;;;;;;;;;;;;;;4548461;28;20864;-72
2021/12/04 13:57:02;;;;;;;;;;;;;;;;;;4548064;28;19916;-74
2021/12/04 13:59:14;;;;;;;;;;;;;;;;;;4547146;28;19916;-73
2021/12/04 14:01:25;;;;;;;;;;;;;;;;;;4547962;28;19920;-72
2021/12/04 14:03:37;;;;;;;;;;;;;;;;;;4547341;28;20159;-73
2021/12/04 14:05:48;;;;;;;;;;;;;;;;;;4548133;28;20015;-71
2021/12/04 14:08:00;;;;;;;;;;;;;;;;;;4546351;28;20384;-74
2021/12/04 14:10:12;;;;;;;;;;;;;;;;;;4547390;28;19924;-74
2021/12/04 14:12:22;;;;;;;;;;;;;;;;;;4547942;28;19920;-70
2021/12/04 14:14:33;;;;;;;;;;;;;;;;;;4547001;28;19917;-74
2021/12/04 14:16:44;;;;;;;;;;;;;;;;;;4547869;28;19916;-71
2021/12/04 14:18:54;;;;;;;;;;;;;;;;;;4546411;28;19928;-73
2021/12/04 14:21:05;;;;;;;;;;;;;;;;;;4547679;28;24993;-71
2021/12/04 14:23:16;;;;;;;;;;;;;;;;;;4548103;28;19974;-72
2021/12/04 14:25:27;;;;;;;;;;;;;;;;;;4548588;28;19963;-72
2021/12/04 14:27:38;;;;;;;;;;;;;;;;;;4546845;28;19912;-71
2021/12/04 14:29:49;;;;;;;;;;;;;;;;;;4548100;28;20507;-71
2021/12/04 14:32:00;;;;;;;;;;;;;;;;;;4551993;28;19920;-71
2021/12/04 14:34:18;;;;;;;;;;;;;;;;;;4548803;28;19970;-70
2021/12/04 14:36:28;;;;;;;;;;;;;;;;;;4548660;28;20534;-71
2021/12/04 14:38:41;;;;;;;;;;;;;;;;;;4549019;28;19913;-69
2021/12/04 14:40:53;;;;;;;;;;;;;;;;;;4548479;28;19925;-70
2021/12/04 14:43:05;;;;;;;;;;;;;;;;;;4549737;28;20479;-70
2021/12/04 14:45:19;;;;;;;;;;;;;;;;;;4549224;28;20019;-69
2021/12/04 14:47:32;;;;;;;;;;;;;;;;;;4550106;28;19921;-69
2021/12/04 14:49:42;;;;;;;;;;;;;;;;;;4548426;28;20480;-68
2021/12/04 14:51:53;;;;;;;;;;;;;;;;;;4551363;28;20179;-70
2021/12/04 14:54:03;;;;;;;;;;;;;;;;;;4550513;28;19963;-66
2021/12/04 14:56:14;;;;;;;;;;;;;;;;;;4548087;28;19923;-70
2021/12/04 14:58:25;;;;;;;;;;;;;;;;;;4548102;28;20023;-69
2021/12/04 15:00:37;;;;;;;;;;;;;;;;;;4534790;28;19921;-69
2021/12/04 15:02:51;;;;;;;;;;;;;;;;;;4550263;28;19918;-67
2021/12/04 15:05:03;;;;;;;;;;;;;;;;;;4548352;28;20222;-70
2021/12/04 15:07:17;;;;;;;;;;;;;;;;;;4549243;28;19924;-68
2021/12/04 15:09:28;;;;;;;;;;;;;;;;;;4549959;28;19972;-69
2021/12/04 15:11:39;;;;;;;;;;;;;;;;;;4547596;28;21591;-72
2021/12/04 15:13:58;;;;;;;;;;;;;;;;;;4549241;28;19984;-70
2021/12/04 15:16:10;;;;;;;;;;;;;;;;;;4549286;28;19923;-68
2021/12/04 15:18:24;;;;;;;;;;;;;;;;;;4547557;28;19920;-69
2021/12/04 15:20:36;;;;;;;;;;;;;;;;;;4549048;28;19917;-71
2021/12/04 15:22:49;;;;;;;;;;;;;;;;;;4549416;28;20387;-68
2021/12/04 15:25:01;;;;;;;;;;;;;;;;;;4548584;28;19942;-71
2021/12/04 15:27:15;;;;;;;;;;;;;;;;;;4548909;28;20480;-68
2021/12/04 15:29:27;;;;;;;;;;;;;;;;;;4548721;28;20007;-67
2021/12/04 15:31:38;;;;;;;;;;;;;;;;;;4548695;28;19920;-67
2021/12/04 15:33:50;;;;;;;;;;;;;;;;;;4548773;28;20165;-67
2021/12/04 15:36:01;;;;;;;;;;;;;;;;;;4549053;28;19926;-66
2021/12/04 15:38:19;;;;;;;;;;;;;;;;;;4547908;28;19927;-66
2021/12/04 15:45:15;;;;;;;;;;;;;;;;;;4557909;28;19918;-67
2021/12/04 15:54:46;;;;;;;;;;;;;;;;;;4548102;28;19924;-65
2021/12/04 15:56:57;;;;;;;;;;;;;;;;;;4557257;28;19920;-66
2021/12/04 15:59:10;;;;;;;;;;;;;;;;;;4547683;28;20482;-65
2021/12/04 16:01:25;;;;;;;;;;;;;;;;;;4549552;28;19998;-63
2021/12/04 16:03:37;;;;;;;;;;;;;;;;;;4549054;28;19920;-63
2021/12/04 16:05:49;;;;;;;;;;;;;;;;;;4550713;28;19920;-66
2021/12/04 16:08:04;;;;;;;;;;;;;;;;;;4550084;28;19920;-64
2021/12/04 16:10:15;;;;;;;;;;;;;;;;;;4546348;28;19920;-65
2021/12/04 16:12:26;;;;;;;;;;;;;;;;;;4546880;28;20479;-64
2021/12/04 16:14:38;;;;;;;;;;;;;;;;;;4548960;28;20206;-65
2021/12/04 16:16:49;;;;;;;;;;;;;;;;;;4547056;28;20015;-69
2021/12/04 16:19:00;;;;;;;;;;;;;;;;;;4550090;28;20038;-73
2021/12/04 16:21:11;;;;;;;;;;;;;;;;;;4547023;28;19912;-66
2021/12/04 16:23:22;;;;;;;;;;;;;;;;;;4547674;28;19916;-68
2021/12/04 16:25:37;;;;;;;;;;;;;;;;;;4548003;28;19960;-68
2021/12/04 16:30:27;;;;;;;;;;;;;;;;;;4548103;28;19912;-67
2021/12/04 16:32:53;;;;;;;;;;;;;;;;;;4548247;28;19994;-68
2021/12/04 16:35:17;;;;;;;;;;;;;;;;;;4548329;28;19926;-72
2021/12/04 16:39:38;;;;;;;;;;;;;;;;;;4547633;28;19917;-69
2021/12/04 16:41:53;;;;;;;;;;;;;;;;;;4548561;28;19960;-71
2021/12/04 16:44:06;;;;;;;;;;;;;;;;;;4548253;28;19920;-69
2021/12/04 16:46:17;;;;;;;;;;;;;;;;;;4547264;28;20605;-69
2021/12/04 16:48:33;;;;;;;;;;;;;;;;;;4547942;28;19917;-68
2021/12/04 16:56:02;;;;;;;;;;;;;;;;;;4535574;28;19921;-70
2021/12/04 16:58:13;;;;;;;;;;;;;;;;;;4547777;28;20490;-70
2021/12/04 17:00:23;;;;;;;;;;;;;;;;;;4548048;28;20395;-71
2021/12/04 17:02:34;;;;;;;;;;;;;;;;;;4546821;28;19921;-71
2021/12/04 17:04:44;;;;;;;;;;;;;;;;;;4531562;28;20289;-71
2021/12/04 17:06:55;;;;;;;;;;;;;;;;;;4549943;28;19924;-71
2021/12/04 17:09:06;;;;;;;;;;;;;;;;;;4549214;28;19924;-71
2021/12/04 17:11:16;;;;;;;;;;;;;;;;;;4547884;28;19916;-70
2021/12/04 17:13:27;;;;;;;;;;;;;;;;;;4531661;28;20373;-70
2021/12/04 17:15:43;;;;;;;;;;;;;;;;;;4546257;28;19924;-71
2021/12/04 17:17:53;;;;;;;;;;;;;;;;;;4548182;28;19924;-71
2021/12/04 17:20:04;;;;;;;;;;;;;;;;;;4538237;28;19924;-70
2021/12/04 17:22:15;;;;;;;;;;;;;;;;;;4548231;28;19960;-66
2021/12/04 17:24:30;;;;;;;;;;;;;;;;;;4545872;28;19971;-66
2021/12/04 17:26:40;;;;;;;;;;;;;;;;;;4546978;28;19993;-71
2021/12/04 17:28:51;;;;;;;;;;;;;;;;;;4547445;28;19966;-67
2021/12/04 17:31:02;;;;;;;;;;;;;;;;;;4546608;28;20019;-68
2021/12/04 17:33:12;;;;;;;;;;;;;;;;;;4548404;28;19951;-66
2021/12/04 17:35:23;;;;;;;;;;;;;;;;;;4548511;28;19931;-69
2021/12/04 17:37:33;;;;;;;;;;;;;;;;;;4548294;28;19927;-70
2021/12/04 17:39:44;;;;;;;;;;;;;;;;;;4549483;28;19920;-68
2021/12/04 17:41:54;;;;;;;;;;;;;;;;;;4544741;28;19912;-67
2021/12/04 17:44:06;;;;;;;;;;;;;;;;;;4547240;28;20011;-70
2021/12/04 17:46:20;;;;;;;;;;;;;;;;;;4547319;28;20457;-71
2021/12/04 17:48:31;;;;;;;;;;;;;;;;;;4546966;28;20498;-68
2021/12/04 17:50:43;;;;;;;;;;;;;;;;;;4545867;28;19920;-70
2021/12/04 17:52:54;;;;;;;;;;;;;;;;;;4548855;28;19917;-69
2021/12/04 17:55:05;;;;;;;;;;;;;;;;;;4550506;28;19920;-68
2021/12/04 17:57:16;;;;;;;;;;;;;;;;;;4547035;28;19917;-67
2021/12/04 17:59:29;;;;;;;;;;;;;;;;;;4555853;28;19951;-68
2021/12/04 18:01:45;;;;;;;;;;;;;;;;;;4549766;28;20512;-70
2021/12/04 18:03:56;;;;;;;;;;;;;;;;;;4548158;28;20027;-68
2021/12/04 18:06:08;;;;;;;;;;;;;;;;;;4550046;28;19916;-69
2021/12/04 18:08:19;;;;;;;;;;;;;;;;;;4547843;28;20438;-67
2021/12/04 18:10:31;;;;;;;;;;;;;;;;;;4550436;28;19917;-68
2021/12/04 18:12:44;;;;;;;;;;;;;;;;;;4533129;28;19960;-68
2021/12/04 18:14:54;;;;;;;;;;;;;;;;;;4548185;28;19979;-67
2021/12/04 18:17:04;;;;;;;;;;;;;;;;;;4532440;28;20297;-67
2021/12/04 18:19:15;;;;;;;;;;;;;;;;;;4549047;28;19924;-70
2021/12/04 18:21:26;;;;;;;;;;;;;;;;;;4550616;28;19920;-69